Las Lomitas, Argentina
Current Conditions -  °F | °C
As of 10:00 AM on Tuesday 21 Oct 2014 (Local Time) from SARF Reporting Station
Clear Clear  
Wind Chill: 79°   Ceiling: Unl
Heat Index: 79°   Visibility: 6mi
Dew Point: 54°   Wind: 14mph
Humidity: 42%   Direction: 110°ESE
Pressure: 30.09"   Gusts: NA
Location:  24.7°S, 60.58°W
Report Text: SARF 211300Z 11012KT CAVOK 26/12 Q1019
Loading
Personal Weather Stations






























Interactive Weather Map
Tropical Storm Tracking
New forecast layout! Learn more

10-Day Weather Forecast

Advertisements
Track Severe Weather on mobile